createdAt,value
2022-11-24T00:04:26.900Z,97.11
2022-11-24T00:12:53.626Z,96.97
2022-11-24T00:21:18.792Z,97.07
2022-11-24T00:29:42.389Z,97.43
2022-11-24T00:38:05.641Z,97.50
2022-11-24T00:46:29.268Z,97.30
2022-11-24T00:54:52.856Z,97.27
2022-11-24T01:03:17.262Z,97.32
2022-11-24T01:11:59.475Z,97.47
2022-11-24T01:20:23.336Z,97.53
2022-11-24T01:28:47.904Z,97.69
2022-11-24T01:37:12.045Z,97.69
2022-11-24T01:45:41.807Z,97.83
2022-11-24T01:54:11.087Z,97.87
2022-11-24T02:02:34.751Z,97.42
2022-11-24T02:11:02.627Z,97.66
2022-11-24T02:19:44.507Z,97.93
2022-11-24T06:51:33.172Z,97.67
2022-11-24T06:59:57.513Z,97.20
2022-11-24T07:08:20.598Z,96.84
2022-11-24T07:16:43.826Z,96.85
2022-11-24T07:25:09.906Z,97.13
2022-11-24T07:33:33.190Z,96.78
2022-11-24T07:42:11.636Z,96.39
2022-11-24T07:50:34.862Z,95.73
2022-11-24T07:58:57.923Z,95.59
2022-11-24T08:07:21.279Z,95.21
2022-11-24T08:15:44.499Z,94.52
2022-11-24T08:25:11.225Z,94.12
2022-11-24T08:33:34.969Z,93.52
2022-11-24T08:42:12.866Z,93.05
2022-11-24T08:50:37.816Z,93.52
2022-11-24T08:59:00.995Z,93.26
2022-11-24T09:07:24.332Z,93.13
2022-11-24T09:15:47.604Z,93.00
2022-11-24T09:24:11.270Z,92.43
2022-11-24T09:32:34.344Z,93.05
2022-11-24T09:41:21.337Z,92.64
2022-11-24T09:50:18.212Z,92.41
2022-11-24T09:59:02.768Z,92.92
2022-11-24T10:07:38.274Z,91.92
2022-11-24T10:16:45.605Z,92.52
2022-11-24T10:25:21.374Z,91.57
2022-11-24T10:33:48.611Z,92.42
2022-11-24T10:42:30.210Z,92.35
2022-11-24T10:51:16.118Z,91.86
2022-11-24T10:59:46.587Z,91.55
2022-11-24T11:10:20.678Z,91.20
2022-11-24T11:19:48.821Z,91.51
2022-11-24T11:28:24.831Z,91.82
2022-11-24T11:37:04.664Z,91.93
2022-11-24T11:47:30.329Z,91.95
2022-11-24T11:56:21.727Z,91.26
2022-11-24T12:04:59.668Z,90.30
2022-11-24T12:13:28.947Z,90.97
2022-11-24T12:22:01.097Z,91.14
2022-11-24T12:30:24.934Z,91.04
2022-11-24T12:39:12.694Z,90.75
2022-11-24T12:47:54.844Z,91.29
2022-11-24T12:56:26.509Z,90.92
2022-11-24T13:05:13.682Z,91.60
2022-11-24T13:13:58.905Z,91.82
2022-11-24T13:22:26.437Z,91.82
2022-11-24T13:30:55.013Z,91.88
2022-11-24T13:39:21.434Z,92.17
2022-11-24T13:47:48.130Z,92.86
2022-11-24T13:56:14.443Z,92.81
2022-11-24T14:04:39.903Z,92.55
2022-11-24T14:13:33.696Z,92.15
2022-11-24T14:39:50.800Z,93.56
2022-11-24T17:23:48.324Z,95.08
2022-11-24T17:32:14.027Z,94.93
2022-11-24T17:40:39.931Z,95.04
2022-11-24T17:49:01.938Z,95.21
2022-11-24T17:57:25.779Z,94.93
2022-11-24T18:05:47.856Z,95.11
